Time;durP1;ratioP1;P1;durP2;ratioP2;P2;SDS_P1;SDS_P2;PMS_P1;PMS_P2;Temp;Humidity;BMP_temperature;BMP_pressure;BME280_temperature;BME280_humidity;BME280_pressure;Samples;Min_cycle;Max_cycle;Signal;HPM_P1;HPM_P2
2023/04/13 00:00:44;;;;;;;17.63;11.98;;;;;;;;;;5071386;28;20486;-80
2023/04/13 00:03:12;;;;;;;17.88;11.05;;;;;;;;;;5062825;28;20431;-81
2023/04/13 00:05:38;;;;;;;14.50;10.10;;;;;;;;;;5070703;28;20925;-81
2023/04/13 00:08:05;;;;;;;17.35;11.10;;;;;;;;;;5070819;28;20411;-81
2023/04/13 00:10:35;;;;;;;19.35;10.48;;;;;;;;;;5068484;28;20490;-81
2023/04/13 00:13:01;;;;;;;15.55;10.60;;;;;;;;;;5069528;28;20458;-81
2023/04/13 00:15:27;;;;;;;16.63;11.30;;;;;;;;;;5068133;28;20418;-81
2023/04/13 00:17:54;;;;;;;19.38;10.38;;;;;;;;;;5070666;28;20427;-81
2023/04/13 00:20:20;;;;;;;21.73;11.23;;;;;;;;;;5065359;28;20916;-81
2023/04/13 00:22:47;;;;;;;17.90;10.65;;;;;;;;;;5066538;28;20439;-80
2023/04/13 00:25:14;;;;;;;18.00;10.65;;;;;;;;;;5067540;28;20440;-81
2023/04/13 00:27:42;;;;;;;18.75;10.80;;;;;;;;;;5071017;28;20422;-81
2023/04/13 00:30:10;;;;;;;16.25;10.75;;;;;;;;;;5067050;28;20432;-79
2023/04/13 00:32:37;;;;;;;15.45;9.70;;;;;;;;;;5067513;28;20837;-80
2023/04/13 00:35:04;;;;;;;16.58;10.25;;;;;;;;;;5071519;28;20427;-79
2023/04/13 00:37:31;;;;;;;18.13;10.55;;;;;;;;;;5065498;28;20425;-81
2023/04/13 00:39:58;;;;;;;15.00;10.32;;;;;;;;;;5068239;28;20431;-81
2023/04/13 00:42:24;;;;;;;14.00;10.00;;;;;;;;;;5065997;28;20937;-81
2023/04/13 00:44:52;;;;;;;17.55;10.68;;;;;;;;;;5067909;28;20928;-82
2023/04/13 00:47:21;;;;;;;18.35;10.43;;;;;;;;;;5072938;28;20412;-81
2023/04/13 00:49:48;;;;;;;16.30;10.27;;;;;;;;;;5068014;28;20939;-79
2023/04/13 00:52:14;;;;;;;18.15;10.82;;;;;;;;;;5072263;28;20773;-80
2023/04/13 00:54:41;;;;;;;16.63;10.25;;;;;;;;;;5071576;28;20418;-80
2023/04/13 00:57:08;;;;;;;15.75;10.00;;;;;;;;;;5068468;28;20421;-80
2023/04/13 00:59:35;;;;;;;13.57;10.35;;;;;;;;;;5064749;28;20430;-79
2023/04/13 01:02:04;;;;;;;18.75;11.20;;;;;;;;;;5062382;28;20578;-81
2023/04/13 01:04:31;;;;;;;15.05;10.68;;;;;;;;;;5063508;28;20463;-81
2023/04/13 01:07:00;;;;;;;18.20;10.95;;;;;;;;;;5067042;28;20426;-81
2023/04/13 01:09:30;;;;;;;18.65;10.82;;;;;;;;;;5058113;28;20978;-80
2023/04/13 01:12:03;;;;;;;14.93;10.57;;;;;;;;;;5069287;28;20955;-81
2023/04/13 01:14:32;;;;;;;17.30;10.82;;;;;;;;;;5065267;28;20764;-81
2023/04/13 01:17:02;;;;;;;15.70;10.63;;;;;;;;;;5064787;28;20468;-81
2023/04/13 01:19:40;;;;;;;15.07;11.60;;;;;;;;;;5067964;28;20441;-80
2023/04/13 01:22:07;;;;;;;17.67;11.30;;;;;;;;;;5067693;28;20454;-80
2023/04/13 01:24:41;;;;;;;18.85;10.70;;;;;;;;;;5067509;28;20431;-79
2023/04/13 01:27:11;;;;;;;15.10;11.27;;;;;;;;;;5071895;28;20475;-81
2023/04/13 01:29:40;;;;;;;19.88;11.30;;;;;;;;;;5066843;28;20431;-81
2023/04/13 01:32:07;;;;;;;17.80;10.77;;;;;;;;;;5066041;28;20432;-80
2023/04/13 01:34:34;;;;;;;13.75;10.45;;;;;;;;;;5068658;28;20427;-81
2023/04/13 01:37:03;;;;;;;18.45;11.27;;;;;;;;;;5067198;28;20451;-81
2023/04/13 01:39:30;;;;;;;16.98;11.30;;;;;;;;;;5069135;28;20420;-81
2023/04/13 01:41:57;;;;;;;18.42;10.70;;;;;;;;;;5066865;28;20860;-81
2023/04/13 01:44:23;;;;;;;18.55;11.20;;;;;;;;;;5063380;28;20416;-81
2023/04/13 01:46:53;;;;;;;14.80;11.07;;;;;;;;;;5065395;28;20427;-80
2023/04/13 01:49:20;;;;;;;16.98;11.52;;;;;;;;;;5068985;28;20447;-81
2023/04/13 01:51:48;;;;;;;17.67;10.68;;;;;;;;;;5068630;28;20427;-81
2023/04/13 01:54:17;;;;;;;16.38;10.68;;;;;;;;;;5068166;28;20473;-81
2023/04/13 01:56:44;;;;;;;18.00;11.30;;;;;;;;;;5068556;28;20435;-80
2023/04/13 01:59:11;;;;;;;16.83;10.77;;;;;;;;;;5066537;28;20925;-81
2023/04/13 02:01:37;;;;;;;21.15;11.07;;;;;;;;;;5066024;28;20477;-81
2023/04/13 02:04:06;;;;;;;19.00;11.00;;;;;;;;;;5061187;28;20428;-81
2023/04/13 02:06:32;;;;;;;18.00;11.03;;;;;;;;;;5070639;28;20432;-81
2023/04/13 02:08:59;;;;;;;18.63;11.63;;;;;;;;;;5068716;28;20434;-81
2023/04/13 02:11:26;;;;;;;18.92;11.40;;;;;;;;;;5065549;28;20481;-81
2023/04/13 02:13:54;;;;;;;18.05;11.60;;;;;;;;;;5069032;28;20426;-81
2023/04/13 02:16:21;;;;;;;18.05;11.25;;;;;;;;;;5064173;28;20496;-81
2023/04/13 02:18:48;;;;;;;15.95;11.02;;;;;;;;;;5065318;28;20419;-81
2023/04/13 02:21:15;;;;;;;17.83;10.90;;;;;;;;;;5067981;28;20435;-79
2023/04/13 02:23:42;;;;;;;18.25;11.10;;;;;;;;;;5066803;28;20949;-81
2023/04/13 02:26:08;;;;;;;16.60;11.60;;;;;;;;;;5065632;28;20424;-81
2023/04/13 02:28:35;;;;;;;17.55;11.27;;;;;;;;;;5065466;28;20421;-79
2023/04/13 02:31:02;;;;;;;18.52;11.43;;;;;;;;;;5069127;28;20440;-79
2023/04/13 02:33:30;;;;;;;17.08;11.93;;;;;;;;;;5072360;28;20849;-81
2023/04/13 02:35:57;;;;;;;19.27;12.33;;;;;;;;;;5074358;28;20454;-81
2023/04/13 02:38:25;;;;;;;16.77;11.30;;;;;;;;;;5077949;28;20415;-82
2023/04/13 02:40:53;;;;;;;19.38;11.90;;;;;;;;;;5075390;28;21200;-83
2023/04/13 02:43:20;;;;;;;22.08;13.02;;;;;;;;;;5076568;28;20439;-80
2023/04/13 02:45:47;;;;;;;17.67;11.20;;;;;;;;;;5077471;28;20493;-82
2023/04/13 02:48:13;;;;;;;16.30;11.33;;;;;;;;;;5080204;28;20425;-81
2023/04/13 02:50:40;;;;;;;20.00;12.15;;;;;;;;;;5079801;28;20424;-80
2023/04/13 02:53:06;;;;;;;19.40;11.73;;;;;;;;;;5075626;28;21000;-83
2023/04/13 02:55:35;;;;;;;18.52;11.80;;;;;;;;;;5078944;28;20420;-80
2023/04/13 02:58:03;;;;;;;18.25;11.77;;;;;;;;;;5082647;28;20427;-81
2023/04/13 03:00:29;;;;;;;20.00;12.40;;;;;;;;;;5073065;28;20421;-80
2023/04/13 03:02:56;;;;;;;15.73;11.23;;;;;;;;;;5078727;28;20434;-81
2023/04/13 03:05:23;;;;;;;17.75;10.85;;;;;;;;;;5069305;28;20519;-81
2023/04/13 03:07:49;;;;;;;16.75;11.00;;;;;;;;;;5067069;28;20408;-80
2023/04/13 03:10:17;;;;;;;17.77;11.05;;;;;;;;;;5060952;28;20423;-79
2023/04/13 03:12:47;;;;;;;17.42;11.75;;;;;;;;;;5069051;28;20447;-81
2023/04/13 03:15:14;;;;;;;16.23;11.35;;;;;;;;;;5067481;28;20422;-79
2023/04/13 03:17:42;;;;;;;18.80;11.43;;;;;;;;;;5066634;28;20439;-79
2023/04/13 03:20:11;;;;;;;16.08;11.05;;;;;;;;;;5066894;28;20859;-81
2023/04/13 03:22:38;;;;;;;16.47;10.50;;;;;;;;;;5066155;28;20498;-80
2023/04/13 03:25:05;;;;;;;20.13;12.82;;;;;;;;;;5065762;28;20423;-80
2023/04/13 03:27:31;;;;;;;17.50;10.40;;;;;;;;;;5067098;28;20415;-80
2023/04/13 03:29:59;;;;;;;15.32;10.90;;;;;;;;;;5069196;28;20420;-79
2023/04/13 03:32:26;;;;;;;17.38;10.15;;;;;;;;;;5066249;28;20411;-79
2023/04/13 03:34:52;;;;;;;16.67;9.60;;;;;;;;;;5069204;28;20494;-79
2023/04/13 03:37:18;;;;;;;15.15;9.77;;;;;;;;;;5068049;28;20431;-79
2023/04/13 03:39:45;;;;;;;15.30;10.10;;;;;;;;;;5062499;28;20429;-79
2023/04/13 03:42:11;;;;;;;14.05;8.77;;;;;;;;;;5069876;28;20431;-80
2023/04/13 03:44:38;;;;;;;13.07;9.53;;;;;;;;;;5070850;28;20416;-80
2023/04/13 03:47:08;;;;;;;16.35;10.27;;;;;;;;;;5070977;28;20434;-79
2023/04/13 03:49:34;;;;;;;19.15;8.70;;;;;;;;;;5065640;28;20414;-80
2023/04/13 03:52:01;;;;;;;11.80;8.03;;;;;;;;;;5070462;28;20522;-81
2023/04/13 03:54:28;;;;;;;12.52;8.48;;;;;;;;;;5068451;28;20415;-79
2023/04/13 03:56:56;;;;;;;14.25;7.82;;;;;;;;;;5072357;28;20417;-80
2023/04/13 03:59:23;;;;;;;12.68;7.80;;;;;;;;;;5064970;28;20428;-81
2023/04/13 04:01:50;;;;;;;12.32;8.00;;;;;;;;;;5069238;28;20429;-80
2023/04/13 04:04:18;;;;;;;12.80;7.40;;;;;;;;;;5066516;28;20506;-79
2023/04/13 04:06:44;;;;;;;12.43;7.30;;;;;;;;;;5068069;28;20926;-80
2023/04/13 04:09:12;;;;;;;11.27;7.03;;;;;;;;;;5065757;28;20525;-79
2023/04/13 04:11:38;;;;;;;8.70;6.72;;;;;;;;;;5066821;28;20434;-80
2023/04/13 04:14:05;;;;;;;7.30;5.80;;;;;;;;;;5065105;28;20420;-80
2023/04/13 04:16:31;;;;;;;8.48;6.15;;;;;;;;;;5064148;28;20435;-79
2023/04/13 04:18:57;;;;;;;8.07;5.40;;;;;;;;;;5066634;28;20529;-79
2023/04/13 04:21:33;;;;;;;7.65;5.90;;;;;;;;;;5066598;28;20423;-80
2023/04/13 04:23:59;;;;;;;9.50;5.40;;;;;;;;;;5069982;28;20458;-81
2023/04/13 04:26:26;;;;;;;8.20;4.80;;;;;;;;;;5067694;28;20786;-80
2023/04/13 04:29:00;;;;;;;9.30;5.20;;;;;;;;;;5064821;28;20921;-80
2023/04/13 04:31:26;;;;;;;7.03;4.50;;;;;;;;;;5067826;28;20436;-81
2023/04/13 04:33:53;;;;;;;7.45;4.60;;;;;;;;;;5067158;28;20416;-79
2023/04/13 04:36:20;;;;;;;8.38;4.80;;;;;;;;;;5075349;28;20779;-81
2023/04/13 04:38:48;;;;;;;5.50;3.90;;;;;;;;;;5070795;28;20469;-80
2023/04/13 04:41:20;;;;;;;6.78;4.00;;;;;;;;;;5072438;28;20522;-82
2023/04/13 04:43:48;;;;;;;6.03;3.97;;;;;;;;;;5073947;28;20415;-81
2023/04/13 04:46:15;;;;;;;5.60;3.65;;;;;;;;;;5070491;28;20420;-80
2023/04/13 04:48:42;;;;;;;5.10;4.10;;;;;;;;;;5066845;28;20451;-80
2023/04/13 04:51:10;;;;;;;5.63;3.80;;;;;;;;;;5073516;28;20454;-82
2023/04/13 04:53:36;;;;;;;8.52;4.55;;;;;;;;;;5068024;28;20908;-79
2023/04/13 04:56:05;;;;;;;6.13;3.77;;;;;;;;;;5070009;28;20413;-80
2023/04/13 04:58:31;;;;;;;5.33;3.80;;;;;;;;;;5069493;28;20447;-80
2023/04/13 05:00:58;;;;;;;6.13;4.10;;;;;;;;;;5066593;28;21149;-80
2023/04/13 05:03:24;;;;;;;7.82;4.25;;;;;;;;;;5072040;28;20837;-81
2023/04/13 05:05:51;;;;;;;4.87;3.40;;;;;;;;;;5073917;28;20427;-82
2023/04/13 05:08:17;;;;;;;4.85;3.58;;;;;;;;;;5070110;28;20428;-81
2023/04/13 05:10:44;;;;;;;8.43;3.00;;;;;;;;;;5068380;28;20431;-82
2023/04/13 05:13:13;;;;;;;6.53;3.20;;;;;;;;;;5068673;28;20495;-80
2023/04/13 05:15:39;;;;;;;5.55;3.90;;;;;;;;;;5074896;28;20430;-80
2023/04/13 05:18:06;;;;;;;3.50;3.20;;;;;;;;;;5072649;28;20424;-80
2023/04/13 05:20:33;;;;;;;6.35;3.40;;;;;;;;;;5072600;28;20419;-80
2023/04/13 05:22:59;;;;;;;6.00;3.20;;;;;;;;;;5071025;28;20444;-82
2023/04/13 05:25:26;;;;;;;4.70;2.80;;;;;;;;;;5074900;28;20419;-80
2023/04/13 05:27:53;;;;;;;4.10;3.20;;;;;;;;;;5070826;28;20431;-80
2023/04/13 05:30:21;;;;;;;6.80;3.30;;;;;;;;;;5073821;28;20976;-79
2023/04/13 05:32:47;;;;;;;6.20;2.80;;;;;;;;;;5076437;28;20467;-80
2023/04/13 05:35:14;;;;;;;4.57;3.30;;;;;;;;;;5073518;28;20793;-80
2023/04/13 05:37:40;;;;;;;6.80;3.00;;;;;;;;;;5072127;28;20432;-80
2023/04/13 05:40:13;;;;;;;6.45;2.70;;;;;;;;;;5075318;28;20516;-80
2023/04/13 05:42:41;;;;;;;4.30;3.10;;;;;;;;;;5071423;28;20894;-81
2023/04/13 05:45:09;;;;;;;4.15;3.30;;;;;;;;;;5072886;28;20805;-81
2023/04/13 05:47:38;;;;;;;4.80;3.20;;;;;;;;;;5070770;28;20489;-79
2023/04/13 05:50:05;;;;;;;4.07;2.85;;;;;;;;;;5072361;28;20451;-81
2023/04/13 05:52:32;;;;;;;4.65;3.03;;;;;;;;;;5079303;28;20407;-80
2023/04/13 05:54:58;;;;;;;3.78;2.40;;;;;;;;;;5077960;28;20415;-80
2023/04/13 05:57:24;;;;;;;6.23;3.10;;;;;;;;;;5077934;28;20524;-80
2023/04/13 05:59:52;;;;;;;6.20;3.40;;;;;;;;;;5078575;28;20419;-81
2023/04/13 06:02:19;;;;;;;7.53;3.95;;;;;;;;;;5074890;28;20423;-82
2023/04/13 06:04:47;;;;;;;4.65;2.75;;;;;;;;;;5080250;28;20905;-81
2023/04/13 06:07:15;;;;;;;5.47;3.40;;;;;;;;;;5072466;28;20446;-81
2023/04/13 06:09:41;;;;;;;3.60;2.80;;;;;;;;;;5079678;28;20411;-83
2023/04/13 06:12:08;;;;;;;6.85;3.47;;;;;;;;;;5077311;28;20423;-80
2023/04/13 06:14:34;;;;;;;5.80;3.50;;;;;;;;;;5078143;28;20447;-81
2023/04/13 06:17:01;;;;;;;5.50;3.20;;;;;;;;;;5076357;28;20933;-81
2023/04/13 06:19:28;;;;;;;5.63;3.78;;;;;;;;;;5081407;28;20422;-81
2023/04/13 06:21:56;;;;;;;4.57;2.95;;;;;;;;;;5081942;28;20414;-79
2023/04/13 06:24:23;;;;;;;7.70;3.38;;;;;;;;;;5075755;28;20451;-81
2023/04/13 06:26:50;;;;;;;6.97;3.80;;;;;;;;;;5078507;28;20843;-79
2023/04/13 06:29:16;;;;;;;7.22;3.75;;;;;;;;;;5070295;28;20479;-80
2023/04/13 06:31:42;;;;;;;5.55;3.20;;;;;;;;;;5071981;28;20415;-80
2023/04/13 06:34:09;;;;;;;6.88;4.00;;;;;;;;;;5055758;28;20476;-80
2023/04/13 06:36:36;;;;;;;6.68;3.75;;;;;;;;;;5068588;28;20416;-79
2023/04/13 06:39:04;;;;;;;5.20;3.90;;;;;;;;;;5064622;28;20415;-79
2023/04/13 06:41:32;;;;;;;6.60;4.22;;;;;;;;;;5064714;28;20420;-80
2023/04/13 06:43:58;;;;;;;7.72;4.43;;;;;;;;;;5068808;28;20412;-80
2023/04/13 06:46:26;;;;;;;6.85;4.60;;;;;;;;;;5071018;28;20419;-79
2023/04/13 06:48:53;;;;;;;6.22;4.40;;;;;;;;;;5066949;28;20441;-81
2023/04/13 06:51:20;;;;;;;6.90;4.40;;;;;;;;;;5071436;28;20487;-80
2023/04/13 06:53:46;;;;;;;10.27;4.80;;;;;;;;;;5068940;28;20465;-81
2023/04/13 06:56:14;;;;;;;5.18;4.70;;;;;;;;;;5071516;28;20425;-80
2023/04/13 06:58:41;;;;;;;6.45;5.47;;;;;;;;;;5070476;28;20416;-81
2023/04/13 07:01:07;;;;;;;6.82;5.10;;;;;;;;;;5070195;28;20423;-80
2023/04/13 07:03:35;;;;;;;7.70;6.03;;;;;;;;;;5069866;28;20433;-80
2023/04/13 07:06:01;;;;;;;6.95;5.20;;;;;;;;;;5065825;28;20415;-80
2023/04/13 07:08:28;;;;;;;6.20;5.60;;;;;;;;;;5064923;28;20529;-79
2023/04/13 07:10:56;;;;;;;6.90;5.70;;;;;;;;;;5069610;28;20483;-79
2023/04/13 07:13:24;;;;;;;7.80;6.10;;;;;;;;;;5067077;28;20427;-80
2023/04/13 07:15:50;;;;;;;9.35;6.90;;;;;;;;;;5071585;28;20416;-79
2023/04/13 07:18:17;;;;;;;7.20;5.78;;;;;;;;;;5066171;28;20436;-80
2023/04/13 07:20:43;;;;;;;9.13;6.10;;;;;;;;;;5069102;28;20413;-80
2023/04/13 07:23:11;;;;;;;7.32;6.50;;;;;;;;;;5070253;28;20407;-79
2023/04/13 07:25:37;;;;;;;7.85;7.00;;;;;;;;;;5071581;28;20419;-79
2023/04/13 07:28:05;;;;;;;8.67;6.37;;;;;;;;;;5071389;28;20411;-79
2023/04/13 07:30:33;;;;;;;6.43;5.73;;;;;;;;;;5068986;28;20425;-79
2023/04/13 07:32:59;;;;;;;7.40;6.50;;;;;;;;;;5068362;28;21007;-79
2023/04/13 07:35:26;;;;;;;6.85;6.03;;;;;;;;;;5072896;28;20419;-78
2023/04/13 07:37:52;;;;;;;7.32;6.50;;;;;;;;;;5071764;28;20781;-80
2023/04/13 07:40:20;;;;;;;8.10;6.72;;;;;;;;;;5067952;28;20424;-80
2023/04/13 07:42:49;;;;;;;6.25;5.38;;;;;;;;;;5068635;28;20429;-81
2023/04/13 07:45:16;;;;;;;7.68;5.95;;;;;;;;;;5067573;28;20427;-81
2023/04/13 07:47:44;;;;;;;7.40;6.05;;;;;;;;;;5067784;28;20421;-80
2023/04/13 07:50:10;;;;;;;7.72;5.93;;;;;;;;;;5070744;28;20417;-81
2023/04/13 07:52:37;;;;;;;8.90;6.25;;;;;;;;;;5062379;28;20425;-79
2023/04/13 07:55:03;;;;;;;10.00;6.88;;;;;;;;;;5071337;28;20427;-79
2023/04/13 07:57:30;;;;;;;7.10;6.27;;;;;;;;;;5068076;28;20414;-79
2023/04/13 07:59:56;;;;;;;10.05;6.65;;;;;;;;;;5072071;28;20434;-79
2023/04/13 08:02:23;;;;;;;9.55;6.00;;;;;;;;;;5069658;28;20465;-80
2023/04/13 08:04:51;;;;;;;8.07;5.78;;;;;;;;;;5070810;28;20438;-79
2023/04/13 08:07:18;;;;;;;10.13;5.60;;;;;;;;;;5069552;28;20426;-80
2023/04/13 08:09:45;;;;;;;6.00;5.43;;;;;;;;;;5074960;28;20415;-79
2023/04/13 08:12:11;;;;;;;8.48;5.75;;;;;;;;;;5074671;28;20458;-79
2023/04/13 08:14:38;;;;;;;7.78;5.28;;;;;;;;;;5077388;28;20422;-79
2023/04/13 08:17:05;;;;;;;8.48;6.13;;;;;;;;;;5072992;28;20507;-79
2023/04/13 08:19:32;;;;;;;7.13;5.20;;;;;;;;;;5074626;28;20514;-79
2023/04/13 08:22:00;;;;;;;7.80;5.50;;;;;;;;;;5071058;28;20413;-79
2023/04/13 08:24:28;;;;;;;7.35;5.70;;;;;;;;;;5073714;28;20430;-80
2023/04/13 08:26:56;;;;;;;8.70;6.30;;;;;;;;;;5076102;28;20417;-79
2023/04/13 08:29:23;;;;;;;9.40;5.40;;;;;;;;;;5075062;28;20427;-81
2023/04/13 08:31:50;;;;;;;7.10;5.27;;;;;;;;;;5075609;28;20931;-79
2023/04/13 08:34:17;;;;;;;10.00;5.90;;;;;;;;;;5073303;28;20411;-79
2023/04/13 08:36:44;;;;;;;6.87;5.07;;;;;;;;;;5073289;28;20434;-79
2023/04/13 08:39:13;;;;;;;8.40;5.50;;;;;;;;;;5068327;28;20451;-80
2023/04/13 08:41:40;;;;;;;7.15;5.32;;;;;;;;;;5074463;28;20418;-81
2023/04/13 08:44:07;;;;;;;7.35;5.05;;;;;;;;;;5075396;28;20407;-81
2023/04/13 08:46:34;;;;;;;9.85;5.65;;;;;;;;;;5072776;28;20411;-81
2023/04/13 08:49:00;;;;;;;7.50;4.88;;;;;;;;;;5070382;28;20403;-79
2023/04/13 08:51:28;;;;;;;7.72;4.72;;;;;;;;;;5071271;28;20460;-80
2023/04/13 08:53:54;;;;;;;7.18;4.68;;;;;;;;;;5071525;28;20774;-81
2023/04/13 08:56:23;;;;;;;5.20;4.70;;;;;;;;;;5070886;28;20515;-81
2023/04/13 08:58:52;;;;;;;6.10;4.50;;;;;;;;;;5070837;28;20416;-80
2023/04/13 09:01:19;;;;;;;7.47;4.30;;;;;;;;;;5067262;28;20487;-80
2023/04/13 09:03:49;;;;;;;6.40;4.90;;;;;;;;;;5069402;28;20416;-80
2023/04/13 09:06:18;;;;;;;5.90;4.53;;;;;;;;;;5071857;28;20436;-81
2023/04/13 09:08:45;;;;;;;4.50;4.10;;;;;;;;;;5072259;28;20466;-81
2023/04/13 09:11:12;;;;;;;5.25;4.13;;;;;;;;;;5072546;28;20828;-81
2023/04/13 09:13:40;;;;;;;5.50;3.63;;;;;;;;;;5070048;28;20436;-81
2023/04/13 09:16:07;;;;;;;6.15;3.90;;;;;;;;;;5073070;28;20889;-81
2023/04/13 09:18:33;;;;;;;5.10;3.90;;;;;;;;;;5070770;28;20418;-81
2023/04/13 09:21:00;;;;;;;6.10;3.72;;;;;;;;;;5071768;28;21023;-81
2023/04/13 09:23:26;;;;;;;4.95;3.83;;;;;;;;;;5068157;28;20431;-81
2023/04/13 09:26:03;;;;;;;7.10;3.87;;;;;;;;;;5073423;28;20489;-81
2023/04/13 09:28:30;;;;;;;6.25;3.47;;;;;;;;;;5071011;28;20429;-81
2023/04/13 09:31:03;;;;;;;4.33;3.80;;;;;;;;;;5073220;28;20436;-81
2023/04/13 09:33:31;;;;;;;5.15;4.20;;;;;;;;;;5072246;28;20431;-81
2023/04/13 09:36:08;;;;;;;5.30;3.60;;;;;;;;;;5070525;28;20437;-81
2023/04/13 09:38:34;;;;;;;6.90;3.60;;;;;;;;;;5067358;28;20428;-81
2023/04/13 09:41:01;;;;;;;5.60;4.30;;;;;;;;;;5072169;28;20501;-81
2023/04/13 09:43:34;;;;;;;3.80;3.40;;;;;;;;;;5071544;28;20430;-81
2023/04/13 09:46:01;;;;;;;6.95;4.07;;;;;;;;;;5071806;28;20889;-81
2023/04/13 09:48:29;;;;;;;4.43;3.55;;;;;;;;;;5070398;28;21649;-81
2023/04/13 09:50:59;;;;;;;5.63;3.28;;;;;;;;;;5073430;28;20893;-80
2023/04/13 09:53:27;;;;;;;6.43;4.25;;;;;;;;;;5069569;28;20428;-80
2023/04/13 09:55:57;;;;;;;7.28;3.60;;;;;;;;;;5072208;28;20468;-79
2023/04/13 09:58:23;;;;;;;4.95;3.20;;;;;;;;;;5067767;28;20517;-80
2023/04/13 10:00:50;;;;;;;4.20;3.38;;;;;;;;;;5068604;28;20442;-81
2023/04/13 10:03:17;;;;;;;4.80;3.80;;;;;;;;;;5068915;28;20428;-82
2023/04/13 10:05:47;;;;;;;4.57;3.47;;;;;;;;;;5069569;28;20423;-81
2023/04/13 10:08:14;;;;;;;4.55;3.10;;;;;;;;;;5069953;28;20422;-81
2023/04/13 10:10:40;;;;;;;5.68;3.67;;;;;;;;;;5069276;28;20427;-81
2023/04/13 10:13:10;;;;;;;5.38;3.35;;;;;;;;;;5070164;28;20414;-80
2023/04/13 10:15:44;;;;;;;6.63;3.65;;;;;;;;;;5070349;28;20407;-81
2023/04/13 10:18:18;;;;;;;6.65;4.05;;;;;;;;;;5069922;28;20424;-81
2023/04/13 10:20:46;;;;;;;3.97;3.35;;;;;;;;;;5071205;28;20431;-81
2023/04/13 10:23:13;;;;;;;6.28;4.00;;;;;;;;;;5071900;28;20415;-81
2023/04/13 10:25:48;;;;;;;6.32;4.78;;;;;;;;;;5070407;28;20428;-81
2023/04/13 10:28:15;;;;;;;7.75;3.88;;;;;;;;;;5071473;28;20790;-81
2023/04/13 10:30:48;;;;;;;5.97;3.40;;;;;;;;;;5067130;28;20420;-81
2023/04/13 10:33:15;;;;;;;6.40;3.50;;;;;;;;;;5066453;28;20415;-81
2023/04/13 10:35:41;;;;;;;5.53;4.00;;;;;;;;;;5069876;28;20438;-81
2023/04/13 10:38:10;;;;;;;5.88;4.05;;;;;;;;;;5069464;28;20489;-81
2023/04/13 10:40:43;;;;;;;9.23;4.70;;;;;;;;;;5066934;28;20427;-81
2023/04/13 10:43:10;;;;;;;4.40;4.00;;;;;;;;;;5067449;28;20473;-81
2023/04/13 10:45:36;;;;;;;5.28;4.43;;;;;;;;;;5069846;28;20407;-81
2023/04/13 10:48:03;;;;;;;5.33;4.47;;;;;;;;;;5066108;28;20885;-81
2023/04/13 10:50:30;;;;;;;7.60;4.60;;;;;;;;;;5070789;28;20414;-81
2023/04/13 10:53:07;;;;;;;5.07;4.47;;;;;;;;;;5069393;28;20415;-80
2023/04/13 10:55:36;;;;;;;5.72;4.10;;;;;;;;;;5068312;28;20504;-81
2023/04/13 10:58:03;;;;;;;5.30;4.07;;;;;;;;;;5068836;28;20473;-82
2023/04/13 11:00:31;;;;;;;3.63;3.23;;;;;;;;;;5063682;28;21149;-81
2023/04/13 11:02:58;;;;;;;6.07;3.08;;;;;;;;;;5059186;28;20466;-82
2023/04/13 11:05:26;;;;;;;6.32;3.70;;;;;;;;;;5068733;28;20491;-82
2023/04/13 11:07:53;;;;;;;4.22;3.83;;;;;;;;;;5070941;28;20412;-82
2023/04/13 11:10:24;;;;;;;4.53;3.20;;;;;;;;;;5065669;28;20503;-81
2023/04/13 11:12:52;;;;;;;2.97;2.78;;;;;;;;;;5064108;28;20417;-80
2023/04/13 11:15:19;;;;;;;4.60;3.50;;;;;;;;;;5068659;28;20435;-82
2023/04/13 11:17:50;;;;;;;4.00;3.20;;;;;;;;;;5068643;28;20416;-81
2023/04/13 11:20:16;;;;;;;4.10;3.03;;;;;;;;;;5067545;28;20423;-81
2023/04/13 11:22:43;;;;;;;3.00;2.70;;;;;;;;;;5063547;28;20946;-82
2023/04/13 11:25:10;;;;;;;3.25;2.60;;;;;;;;;;5070211;28;20411;-80
2023/04/13 11:27:38;;;;;;;2.92;2.72;;;;;;;;;;5070743;28;20453;-80
2023/04/13 11:30:08;;;;;;;2.90;2.40;;;;;;;;;;5068316;28;20408;-81
2023/04/13 11:32:35;;;;;;;2.80;2.60;;;;;;;;;;5071111;28;20418;-80
2023/04/13 11:35:05;;;;;;;2.30;2.20;;;;;;;;;;5070297;28;20768;-80
2023/04/13 11:37:35;;;;;;;2.28;2.08;;;;;;;;;;5064401;28;20849;-80
2023/04/13 11:40:08;;;;;;;2.58;2.20;;;;;;;;;;5069640;28;20434;-79
2023/04/13 11:42:37;;;;;;;2.35;2.15;;;;;;;;;;5069756;28;20412;-79
2023/04/13 11:45:07;;;;;;;2.70;2.50;;;;;;;;;;5074527;28;20478;-80
2023/04/13 11:47:34;;;;;;;4.60;3.10;;;;;;;;;;5075054;28;20475;-80
2023/04/13 11:50:01;;;;;;;2.97;2.67;;;;;;;;;;5073786;28;20510;-81
2023/04/13 11:52:28;;;;;;;4.30;2.60;;;;;;;;;;5072782;28;20415;-81
2023/04/13 11:54:55;;;;;;;3.50;3.20;;;;;;;;;;5068771;28;20431;-81
2023/04/13 11:57:24;;;;;;;3.58;2.90;;;;;;;;;;5070576;28;20477;-81
2023/04/13 11:59:52;;;;;;;3.10;2.90;;;;;;;;;;5072775;28;20411;-81
2023/04/13 12:02:26;;;;;;;3.95;3.53;;;;;;;;;;5070101;28;20419;-82
2023/04/13 12:04:53;;;;;;;4.95;3.40;;;;;;;;;;5069570;28;20973;-80
2023/04/13 12:07:19;;;;;;;4.75;3.50;;;;;;;;;;5066513;28;20433;-80
2023/04/13 12:09:46;;;;;;;5.90;3.47;;;;;;;;;;5070053;28;20415;-80
2023/04/13 12:12:17;;;;;;;6.30;4.00;;;;;;;;;;5068118;28;20424;-81
2023/04/13 12:14:44;;;;;;;4.68;3.70;;;;;;;;;;5070454;28;20409;-81
2023/04/13 12:17:10;;;;;;;7.78;6.60;;;;;;;;;;5073640;28;20444;-82
2023/04/13 12:19:40;;;;;;;3.60;2.97;;;;;;;;;;5069071;28;20423;-82
2023/04/13 12:22:07;;;;;;;3.30;2.70;;;;;;;;;;5073678;28;20423;-82
2023/04/13 12:24:34;;;;;;;2.70;1.70;;;;;;;;;;5072128;28;20412;-81
2023/04/13 12:27:03;;;;;;;5.15;3.30;;;;;;;;;;5070761;28;20506;-81
2023/04/13 12:29:31;;;;;;;1.30;1.20;;;;;;;;;;5072249;28;20427;-81
2023/04/13 12:32:02;;;;;;;3.80;1.53;;;;;;;;;;5068403;28;20843;-80
2023/04/13 12:34:29;;;;;;;1.50;1.30;;;;;;;;;;5073754;28;20848;-80
2023/04/13 12:36:57;;;;;;;1.77;1.33;;;;;;;;;;5070913;28;20430;-80
2023/04/13 12:39:24;;;;;;;1.35;1.25;;;;;;;;;;5073943;28;20415;-79
2023/04/13 12:41:50;;;;;;;2.33;1.50;;;;;;;;;;5067535;28;20419;-81
2023/04/13 12:44:17;;;;;;;1.67;1.30;;;;;;;;;;5068661;28;20423;-81
2023/04/13 12:46:43;;;;;;;1.50;1.40;;;;;;;;;;5071976;28;20411;-80
2023/04/13 12:49:09;;;;;;;1.90;1.70;;;;;;;;;;5071751;28;20857;-79
2023/04/13 12:51:36;;;;;;;2.47;1.88;;;;;;;;;;5071241;28;20416;-79
2023/04/13 12:54:07;;;;;;;3.80;2.20;;;;;;;;;;5070139;28;20436;-80
2023/04/13 12:56:33;;;;;;;2.15;1.30;;;;;;;;;;5070642;28;20408;-81
2023/04/13 12:59:00;;;;;;;2.00;1.50;;;;;;;;;;5072631;28;20428;-79
2023/04/13 13:01:27;;;;;;;3.28;1.75;;;;;;;;;;5069396;28;20418;-81
2023/04/13 13:03:54;;;;;;;4.07;1.50;;;;;;;;;;5075819;28;20431;-81
2023/04/13 13:06:21;;;;;;;4.03;1.63;;;;;;;;;;5076189;28;20414;-79
2023/04/13 13:08:47;;;;;;;1.98;1.60;;;;;;;;;;5072614;28;20419;-80
2023/04/13 13:11:15;;;;;;;4.32;2.30;;;;;;;;;;5072957;28;20423;-82
2023/04/13 13:13:42;;;;;;;5.30;2.28;;;;;;;;;;5069474;28;20451;-82
2023/04/13 13:16:08;;;;;;;3.40;2.40;;;;;;;;;;5066793;28;20460;-80
2023/04/13 13:18:35;;;;;;;3.38;2.00;;;;;;;;;;5069425;28;20427;-80
2023/04/13 13:21:03;;;;;;;3.50;1.92;;;;;;;;;;5070656;28;20425;-80
2023/04/13 13:23:29;;;;;;;3.60;1.77;;;;;;;;;;5072403;28;20412;-81
2023/04/13 13:25:55;;;;;;;3.90;2.20;;;;;;;;;;5066047;28;20773;-81
2023/04/13 13:28:23;;;;;;;3.60;1.90;;;;;;;;;;5071886;28;20412;-81
2023/04/13 13:30:49;;;;;;;5.33;2.60;;;;;;;;;;5069332;28;20458;-81
2023/04/13 13:33:16;;;;;;;6.50;2.50;;;;;;;;;;5070694;28;20411;-80
2023/04/13 13:35:42;;;;;;;3.63;2.40;;;;;;;;;;5069429;28;20825;-79
2023/04/13 13:38:09;;;;;;;5.38;2.53;;;;;;;;;;5071561;28;20424;-79
2023/04/13 13:40:35;;;;;;;4.63;2.70;;;;;;;;;;5064958;28;20508;-79
2023/04/13 13:43:03;;;;;;;7.60;2.50;;;;;;;;;;5067884;28;20901;-81
2023/04/13 13:45:30;;;;;;;4.63;2.50;;;;;;;;;;5065562;28;20558;-81
2023/04/13 13:47:58;;;;;;;5.57;2.72;;;;;;;;;;5065315;28;20429;-82
2023/04/13 13:50:25;;;;;;;5.30;2.20;;;;;;;;;;5066103;28;20506;-79
2023/04/13 13:52:52;;;;;;;4.47;2.08;;;;;;;;;;5067441;28;20794;-80
2023/04/13 13:55:19;;;;;;;4.47;2.57;;;;;;;;;;5066469;28;20431;-79
2023/04/13 13:57:47;;;;;;;6.18;2.50;;;;;;;;;;5067103;28;20507;-81
2023/04/13 14:00:15;;;;;;;5.70;2.70;;;;;;;;;;5066062;28;20430;-81
2023/04/13 14:02:43;;;;;;;8.05;2.20;;;;;;;;;;5065382;28;20431;-81
2023/04/13 14:05:12;;;;;;;6.70;2.63;;;;;;;;;;5070292;28;20417;-79
2023/04/13 14:07:38;;;;;;;5.57;2.30;;;;;;;;;;5069307;28;20415;-81
2023/04/13 14:10:05;;;;;;;7.43;2.45;;;;;;;;;;5069069;28;20431;-81
2023/04/13 14:12:32;;;;;;;6.40;2.30;;;;;;;;;;5070800;28;20964;-81
2023/04/13 14:14:58;;;;;;;4.13;2.25;;;;;;;;;;5070848;28;20416;-82
2023/04/13 14:17:25;;;;;;;8.60;2.58;;;;;;;;;;5063668;28;20419;-79
2023/04/13 14:19:53;;;;;;;4.22;2.40;;;;;;;;;;5069933;28;20773;-81
2023/04/13 14:22:20;;;;;;;4.90;2.20;;;;;;;;;;5069332;28;20830;-79
2023/04/13 14:24:50;;;;;;;3.30;1.60;;;;;;;;;;5061632;28;20897;-79
2023/04/13 14:27:17;;;;;;;3.33;1.10;;;;;;;;;;5064395;28;20478;-79
2023/04/13 14:29:43;;;;;;;3.80;1.10;;;;;;;;;;5069718;28;20431;-81
2023/04/13 14:32:09;;;;;;;3.90;1.00;;;;;;;;;;5070147;28;20785;-81
2023/04/13 14:34:36;;;;;;;1.88;1.08;;;;;;;;;;5066822;28;20427;-81
2023/04/13 14:37:04;;;;;;;4.65;1.50;;;;;;;;;;5071362;28;20407;-81